createdAt,value
2022-08-03T00:00:00.416Z,880.1
2022-08-03T00:01:00.379Z,880.1
2022-08-03T00:02:00.320Z,880.1
2022-08-03T00:03:00.375Z,880.1
2022-08-03T00:04:00.283Z,880.1
2022-08-03T00:05:00.284Z,880.1
2022-08-03T00:06:03.839Z,880.2
2022-08-03T00:07:00.401Z,880.2
2022-08-03T00:08:00.318Z,880.2
2022-08-03T00:09:00.380Z,880.2
2022-08-03T00:10:00.339Z,880.2
2022-08-03T00:11:00.300Z,880.2
2022-08-03T00:12:00.299Z,880.2
2022-08-03T00:13:00.415Z,880.2
2022-08-03T00:14:00.291Z,880.2
2022-08-03T00:15:00.318Z,880.2
2022-08-03T00:16:00.314Z,880.2
2022-08-03T00:17:00.373Z,880.2
2022-08-03T00:18:00.384Z,880.2
2022-08-03T00:19:00.594Z,880.2
2022-08-03T00:20:00.369Z,880.1
2022-08-03T00:21:00.323Z,880.2
2022-08-03T00:22:00.312Z,880.2
2022-08-03T00:23:00.416Z,880.2
2022-08-03T00:24:00.469Z,880.2
2022-08-03T00:25:00.312Z,880.2
2022-08-03T00:26:00.413Z,880.2
2022-08-03T00:27:00.317Z,880.2
2022-08-03T00:28:00.283Z,880.2
2022-08-03T00:29:00.302Z,880.2
2022-08-03T00:30:00.625Z,880.2
2022-08-03T00:31:00.462Z,880.2
2022-08-03T00:32:00.696Z,880.2
2022-08-03T00:33:00.339Z,880.1
2022-08-03T00:34:03.294Z,880.1
2022-08-03T00:35:00.395Z,880.2
2022-08-03T00:36:00.317Z,880.1
2022-08-03T00:37:00.391Z,880.2
2022-08-03T00:38:00.314Z,880.2
2022-08-03T00:39:00.295Z,880.2
2022-08-03T00:40:00.316Z,880.2
2022-08-03T00:41:00.302Z,880.2
2022-08-03T00:42:00.296Z,880.2
2022-08-03T00:43:00.402Z,880.2
2022-08-03T00:44:00.314Z,880.3
2022-08-03T00:45:00.297Z,880.3
2022-08-03T00:46:00.303Z,880.3
2022-08-03T00:47:00.380Z,880.3
2022-08-03T00:48:00.317Z,880.3
2022-08-03T00:49:00.461Z,880.3
2022-08-03T00:50:00.390Z,880.2
2022-08-03T00:51:00.303Z,880.2
2022-08-03T00:52:00.347Z,880.2
2022-08-03T00:53:00.440Z,880.3
2022-08-03T00:54:00.350Z,880.3
2022-08-03T00:55:00.362Z,880.3
2022-08-03T00:56:00.458Z,880.3
2022-08-03T00:57:00.556Z,880.4
2022-08-03T00:58:00.383Z,880.4
2022-08-03T00:59:00.445Z,880.4
2022-08-03T01:00:00.409Z,880.4
2022-08-03T01:01:00.425Z,880.4
2022-08-03T01:02:00.331Z,880.4
2022-08-03T01:03:00.313Z,880.4
2022-08-03T01:04:00.292Z,880.4
2022-08-03T01:05:00.446Z,880.4
2022-08-03T01:06:00.315Z,880.4
2022-08-03T01:07:00.299Z,880.4
2022-08-03T01:08:00.315Z,880.4
2022-08-03T01:09:00.311Z,880.4
2022-08-03T01:10:00.316Z,880.4
2022-08-03T01:11:00.363Z,880.5
2022-08-03T01:12:01.728Z,880.5
2022-08-03T01:13:00.324Z,880.5
2022-08-03T01:14:04.211Z,880.5
2022-08-03T01:15:00.363Z,880.5
2022-08-03T01:16:00.318Z,880.4
2022-08-03T01:17:00.388Z,880.5
2022-08-03T01:18:00.284Z,880.5
2022-08-03T01:19:00.303Z,880.5
2022-08-03T01:20:00.311Z,880.5
2022-08-03T01:21:00.300Z,880.5
2022-08-03T01:22:00.308Z,880.5
2022-08-03T01:23:00.411Z,880.5
2022-08-03T01:24:00.317Z,880.5
2022-08-03T01:25:00.288Z,880.5
2022-08-03T01:26:00.424Z,880.5
2022-08-03T01:27:00.296Z,880.5
2022-08-03T01:28:00.307Z,880.5
2022-08-03T01:29:00.425Z,880.6
2022-08-03T01:30:00.320Z,880.5
2022-08-03T01:31:00.292Z,880.5
2022-08-03T01:33:02.368Z,880.5
2022-08-03T01:33:02.982Z,880.5
2022-08-03T01:34:00.351Z,880.5
2022-08-03T01:35:00.411Z,880.5
2022-08-03T01:36:00.372Z,880.6
2022-08-03T01:37:00.311Z,880.5
2022-08-03T01:38:00.372Z,880.5
2022-08-03T01:39:00.352Z,880.6
2022-08-03T01:40:00.313Z,880.6
2022-08-03T01:41:00.359Z,880.6
2022-08-03T01:42:00.349Z,880.6
2022-08-03T01:43:00.390Z,880.6
2022-08-03T01:44:30.311Z,880.6
2022-08-03T01:45:00.366Z,880.6
2022-08-03T01:46:00.294Z,880.6
2022-08-03T01:47:00.303Z,880.6
2022-08-03T01:48:00.320Z,880.6
2022-08-03T01:49:00.532Z,880.6
2022-08-03T01:50:00.302Z,880.6
2022-08-03T01:51:00.391Z,880.7
2022-08-03T01:52:13.246Z,880.6
2022-08-03T01:53:00.314Z,880.7
2022-08-03T01:54:00.380Z,880.7
2022-08-03T01:55:00.402Z,880.7
2022-08-03T01:56:00.304Z,880.7
2022-08-03T01:57:00.334Z,880.8
2022-08-03T01:58:05.673Z,880.8
2022-08-03T01:59:00.379Z,880.8
2022-08-03T02:00:00.328Z,880.8
2022-08-03T02:01:00.359Z,880.8
2022-08-03T02:02:29.914Z,880.8
2022-08-03T02:03:00.302Z,880.8
2022-08-03T02:04:01.201Z,880.8
2022-08-03T02:05:00.363Z,880.8
2022-08-03T02:06:11.704Z,880.7
2022-08-03T02:07:03.092Z,880.7
2022-08-03T02:08:00.329Z,880.7
2022-08-03T02:09:00.327Z,880.7
2022-08-03T02:10:00.399Z,880.8
2022-08-03T02:11:00.343Z,880.8
2022-08-03T02:12:00.294Z,880.8
2022-08-03T02:13:00.379Z,880.8
2022-08-03T02:14:00.400Z,880.8
2022-08-03T02:15:00.933Z,880.8
2022-08-03T02:16:00.485Z,880.8
2022-08-03T02:17:00.332Z,880.8
2022-08-03T02:18:00.385Z,880.8
2022-08-03T02:19:00.282Z,880.8
2022-08-03T02:20:00.322Z,880.8
2022-08-03T02:21:00.433Z,880.8
2022-08-03T02:22:01.332Z,880.8
2022-08-03T02:23:00.297Z,880.8
2022-08-03T02:24:00.297Z,880.8
2022-08-03T02:25:00.333Z,880.8
2022-08-03T02:26:00.304Z,880.8
2022-08-03T02:27:00.388Z,880.8
2022-08-03T02:28:00.320Z,880.8
2022-08-03T02:29:00.291Z,880.8
2022-08-03T02:30:00.322Z,880.8
2022-08-03T02:31:00.295Z,880.9
2022-08-03T02:32:00.300Z,880.9
2022-08-03T02:33:00.399Z,880.9
2022-08-03T02:34:00.284Z,880.9
2022-08-03T02:35:00.514Z,880.9
2022-08-03T02:36:00.380Z,880.9
2022-08-03T02:37:00.293Z,880.9
2022-08-03T02:38:00.329Z,880.9
2022-08-03T02:39:00.315Z,880.9
2022-08-03T02:40:00.315Z,880.9
2022-08-03T02:41:00.362Z,880.9
2022-08-03T02:42:00.315Z,880.9
2022-08-03T02:43:00.374Z,880.9
2022-08-03T02:44:07.057Z,880.9
2022-08-03T02:45:00.310Z,880.9
2022-08-03T02:46:00.313Z,880.9
2022-08-03T02:47:00.376Z,880.9
2022-08-03T02:48:00.366Z,881.0
2022-08-03T02:49:00.446Z,881.0
2022-08-03T02:50:00.445Z,881.0
2022-08-03T02:51:00.392Z,881.0
2022-08-03T02:52:00.296Z,881.0
2022-08-03T02:53:00.282Z,881.0
2022-08-03T02:54:00.297Z,881.0
2022-08-03T02:55:00.470Z,881.0
2022-08-03T02:56:00.348Z,881.0
2022-08-03T02:57:00.372Z,881.0
2022-08-03T02:58:01.342Z,881.0
2022-08-03T02:59:00.296Z,881.0
2022-08-03T03:00:00.297Z,881.0
2022-08-03T03:01:00.331Z,881.0
2022-08-03T03:02:00.335Z,881.0
2022-08-03T03:03:00.481Z,881.0
2022-08-03T03:04:00.383Z,881.0
2022-08-03T03:05:55.137Z,881.0
2022-08-03T03:06:00.378Z,881.0
2022-08-03T03:07:01.832Z,881.0
2022-08-03T03:08:00.297Z,881.0
2022-08-03T03:09:00.392Z,881.0
2022-08-03T03:10:00.304Z,881.0
2022-08-03T03:11:00.302Z,881.0
2022-08-03T03:12:00.290Z,881.0
2022-08-03T03:13:00.313Z,881.0
2022-08-03T03:14:00.300Z,881.0
2022-08-03T03:15:00.398Z,881.0
2022-08-03T03:16:00.294Z,881.0
2022-08-03T03:17:00.316Z,881.0
2022-08-03T03:18:00.302Z,881.0
2022-08-03T03:19:00.279Z,881.0
2022-08-03T03:20:00.325Z,881.1
2022-08-03T03:21:00.398Z,881.1
2022-08-03T03:22:00.347Z,881.1
2022-08-03T03:23:00.393Z,881.1
2022-08-03T03:24:00.289Z,881.1
2022-08-03T03:25:00.509Z,881.1
2022-08-03T03:26:00.332Z,881.1
2022-08-03T03:27:00.325Z,881.1
2022-08-03T03:28:00.322Z,881.1
2022-08-03T03:29:00.293Z,881.1
2022-08-03T03:30:00.309Z,881.1
2022-08-03T03:31:00.418Z,881.1
2022-08-03T03:32:00.339Z,881.1
2022-08-03T03:33:00.281Z,881.1
2022-08-03T03:34:00.392Z,881.2
2022-08-03T03:35:00.470Z,881.2
2022-08-03T03:36:00.287Z,881.2
2022-08-03T03:37:00.296Z,881.1
2022-08-03T03:38:00.314Z,881.1
2022-08-03T03:39:00.318Z,881.1
2022-08-03T03:40:00.290Z,881.0
2022-08-03T03:41:00.399Z,881.1
2022-08-03T03:42:00.293Z,881.1
2022-08-03T03:43:00.306Z,881.1
2022-08-03T03:44:00.394Z,881.1
2022-08-03T03:45:00.405Z,881.1
2022-08-03T03:46:00.316Z,881.1
2022-08-03T03:47:00.304Z,881.1
2022-08-03T03:48:00.315Z,881.1
2022-08-03T03:49:00.374Z,881.1
2022-08-03T03:50:00.376Z,881.1
2022-08-03T03:51:00.436Z,881.2
2022-08-03T03:52:00.340Z,881.2
2022-08-03T03:53:00.309Z,881.2
2022-08-03T03:54:00.305Z,881.2
2022-08-03T03:55:01.228Z,881.2
2022-08-03T03:56:02.652Z,881.2
2022-08-03T03:57:00.424Z,881.2
2022-08-03T03:58:00.337Z,881.2
2022-08-03T03:59:00.299Z,881.2
2022-08-03T04:00:00.305Z,881.2
2022-08-03T04:01:00.415Z,881.2
2022-08-03T04:02:00.321Z,881.2
2022-08-03T04:03:00.386Z,881.3
2022-08-03T04:04:00.315Z,881.3
2022-08-03T04:05:00.388Z,881.3
2022-08-03T04:06:00.292Z,881.2
2022-08-03T04:07:00.311Z,881.3
2022-08-03T04:08:00.297Z,881.2
2022-08-03T04:09:00.388Z,881.3
2022-08-03T04:10:02.574Z,881.2
2022-08-03T04:11:00.321Z,881.2
2022-08-03T04:12:00.297Z,881.2
2022-08-03T04:13:00.302Z,881.3
2022-08-03T04:14:01.952Z,881.3
2022-08-03T04:15:00.403Z,881.3
2022-08-03T04:16:00.310Z,881.3
2022-08-03T04:17:00.326Z,881.3
2022-08-03T04:18:00.292Z,881.3
2022-08-03T04:19:00.358Z,881.3
2022-08-03T04:20:00.465Z,881.3
2022-08-03T04:21:00.418Z,881.3
2022-08-03T04:22:00.311Z,881.3
2022-08-03T04:23:00.374Z,881.3
2022-08-03T04:24:00.324Z,881.3
2022-08-03T04:25:00.409Z,881.3
2022-08-03T04:26:00.311Z,881.4
2022-08-03T04:27:00.323Z,881.3
2022-08-03T04:28:20.942Z,881.3
2022-08-03T04:29:00.385Z,881.3
2022-08-03T04:30:00.562Z,881.3
2022-08-03T04:31:00.313Z,881.3
2022-08-03T04:32:00.352Z,881.4
2022-08-03T04:33:00.299Z,881.3
2022-08-03T04:34:00.311Z,881.4
2022-08-03T04:35:00.401Z,881.4
2022-08-03T04:36:02.686Z,881.4
2022-08-03T04:37:00.322Z,881.4
2022-08-03T04:38:00.340Z,881.4
2022-08-03T04:39:00.304Z,881.4
2022-08-03T04:40:00.282Z,881.4
2022-08-03T04:41:00.314Z,881.4
2022-08-03T04:42:08.199Z,881.4
2022-08-03T04:43:00.318Z,881.4
2022-08-03T04:44:00.283Z,881.4
2022-08-03T04:45:01.604Z,881.4
2022-08-03T04:46:00.317Z,881.4
2022-08-03T04:47:00.336Z,881.4
2022-08-03T04:48:00.420Z,881.4
2022-08-03T04:49:00.359Z,881.4
2022-08-03T04:50:00.439Z,881.4
2022-08-03T04:51:00.400Z,881.4
2022-08-03T04:52:00.316Z,881.4
2022-08-03T04:53:00.280Z,881.4
2022-08-03T04:54:00.392Z,881.4
2022-08-03T04:55:00.310Z,881.4
2022-08-03T04:56:01.366Z,881.4
2022-08-03T04:57:00.347Z,881.4
2022-08-03T04:58:00.442Z,881.4
2022-08-03T04:59:00.323Z,881.4
2022-08-03T05:00:03.097Z,881.4
2022-08-03T05:01:00.364Z,881.4
2022-08-03T05:02:00.523Z,881.4
2022-08-03T05:03:00.340Z,881.4
2022-08-03T05:04:00.498Z,881.4
2022-08-03T05:05:00.371Z,881.4
2022-08-03T05:06:01.708Z,881.4
2022-08-03T05:07:00.332Z,881.4
2022-08-03T05:08:00.685Z,881.4
2022-08-03T05:09:00.306Z,881.4
2022-08-03T05:10:02.839Z,881.4
2022-08-03T05:11:00.307Z,881.4
2022-08-03T05:12:00.281Z,881.4
2022-08-03T05:13:00.301Z,881.4
2022-08-03T05:14:00.377Z,881.4
2022-08-03T05:15:00.439Z,881.4
2022-08-03T05:16:00.380Z,881.4
2022-08-03T05:17:00.297Z,881.4
2022-08-03T05:18:00.308Z,881.5
2022-08-03T05:19:00.315Z,881.4
2022-08-03T05:20:00.399Z,881.4
2022-08-03T05:21:00.311Z,881.4
2022-08-03T05:22:00.306Z,881.4
2022-08-03T05:23:00.315Z,881.3
2022-08-03T05:24:00.290Z,881.4
2022-08-03T05:25:00.304Z,881.3
2022-08-03T05:26:00.419Z,881.3
2022-08-03T05:27:00.340Z,881.3
2022-08-03T05:28:00.305Z,881.4
2022-08-03T05:29:00.324Z,881.3
2022-08-03T05:30:31.253Z,881.3
2022-08-03T05:31:00.373Z,881.3
2022-08-03T05:32:03.679Z,881.3
2022-08-03T05:33:00.413Z,881.3
2022-08-03T05:34:00.328Z,881.3
2022-08-03T05:35:00.316Z,881.3
2022-08-03T05:36:03.414Z,881.3
2022-08-03T05:37:00.377Z,881.3
2022-08-03T05:38:00.561Z,881.3
2022-08-03T05:39:02.786Z,881.3
2022-08-03T05:40:00.467Z,881.3
2022-08-03T05:41:21.890Z,881.3
2022-08-03T05:42:00.336Z,881.2
2022-08-03T05:43:00.311Z,881.2
2022-08-03T05:44:00.416Z,881.2
2022-08-03T05:45:00.500Z,881.2
2022-08-03T05:46:12.262Z,881.2
2022-08-03T05:47:00.305Z,881.2
2022-08-03T05:48:00.464Z,881.2
2022-08-03T05:49:00.504Z,881.2
2022-08-03T05:50:00.381Z,881.2
2022-08-03T05:51:00.416Z,881.1
2022-08-03T05:52:12.525Z,881.1
2022-08-03T05:53:00.357Z,881.1
2022-08-03T05:54:00.324Z,881.1
2022-08-03T05:55:00.377Z,881.1
2022-08-03T05:56:03.589Z,881.0
2022-08-03T05:57:00.316Z,881.0
2022-08-03T05:58:00.285Z,881.0
2022-08-03T05:59:16.345Z,881.1
2022-08-03T06:00:00.308Z,881.1
2022-08-03T06:01:00.383Z,881.0
2022-08-03T06:02:00.423Z,881.0
2022-08-03T06:03:00.329Z,881.0
2022-08-03T06:04:00.302Z,881.0
2022-08-03T06:05:00.292Z,881.0
2022-08-03T06:06:00.773Z,881.0
2022-08-03T06:07:00.420Z,881.0
2022-08-03T06:08:00.384Z,881.0
2022-08-03T06:09:00.290Z,881.0
2022-08-03T06:10:36.190Z,881.0
2022-08-03T06:11:00.305Z,881.0
2022-08-03T06:12:00.302Z,881.0
2022-08-03T06:13:00.395Z,881.0
2022-08-03T06:14:00.309Z,881.0
2022-08-03T06:15:00.319Z,881.0
2022-08-03T06:16:00.315Z,881.0
2022-08-03T06:17:00.308Z,880.9
2022-08-03T06:18:02.136Z,881.0
2022-08-03T06:19:00.393Z,880.9
2022-08-03T06:20:00.358Z,880.9
2022-08-03T06:21:14.454Z,880.9
2022-08-03T06:22:00.317Z,880.9
2022-08-03T06:23:01.330Z,880.9
2022-08-03T06:24:00.382Z,880.9
2022-08-03T06:25:04.024Z,880.9
2022-08-03T06:26:00.340Z,880.9
2022-08-03T06:27:00.397Z,880.9
2022-08-03T06:28:00.385Z,880.9
2022-08-03T06:29:00.363Z,880.9
2022-08-03T06:30:00.355Z,880.9
2022-08-03T06:31:00.351Z,880.8
2022-08-03T06:32:00.396Z,880.8
2022-08-03T06:33:00.391Z,880.8
2022-08-03T06:34:32.838Z,880.8
2022-08-03T06:35:00.288Z,880.8
2022-08-03T06:36:00.319Z,880.8
2022-08-03T06:37:02.331Z,880.8
2022-08-03T06:38:00.721Z,880.8
2022-08-03T06:39:00.295Z,880.8
2022-08-03T06:40:00.384Z,880.8
2022-08-03T06:41:00.307Z,880.8
2022-08-03T06:42:00.323Z,880.8
2022-08-03T06:43:00.284Z,880.8
2022-08-03T06:44:03.592Z,880.8
2022-08-03T06:45:00.285Z,880.8
2022-08-03T06:46:00.314Z,880.8
2022-08-03T06:47:00.392Z,880.8
2022-08-03T06:48:00.314Z,880.8
2022-08-03T06:49:00.687Z,880.8
2022-08-03T06:50:16.556Z,880.8
2022-08-03T06:51:00.303Z,880.8
2022-08-03T06:52:06.262Z,880.8
2022-08-03T06:53:00.394Z,880.8
2022-08-03T06:54:00.294Z,880.8
2022-08-03T06:55:00.296Z,880.8
2022-08-03T06:56:00.316Z,880.8
2022-08-03T06:57:00.321Z,880.8
2022-08-03T06:58:03.520Z,880.8
2022-08-03T06:59:00.379Z,880.8
2022-08-03T07:00:08.291Z,880.8
2022-08-03T07:01:00.403Z,880.8
2022-08-03T07:02:00.312Z,880.7
2022-08-03T07:03:00.327Z,880.8
2022-08-03T07:04:00.364Z,880.8
2022-08-03T07:05:00.393Z,880.7
2022-08-03T07:06:00.379Z,880.7
2022-08-03T07:07:00.351Z,880.7
2022-08-03T07:08:00.410Z,880.7
2022-08-03T07:09:00.301Z,880.8
2022-08-03T07:10:00.405Z,880.7
2022-08-03T07:11:00.448Z,880.7
2022-08-03T07:12:00.315Z,880.7
2022-08-03T07:13:00.409Z,880.7
2022-08-03T07:14:00.362Z,880.7
2022-08-03T07:15:01.670Z,880.7
2022-08-03T07:16:00.287Z,880.7
2022-08-03T07:17:00.408Z,880.7
2022-08-03T07:18:00.318Z,880.7
2022-08-03T07:19:00.472Z,880.7
2022-08-03T07:20:00.375Z,880.7
2022-08-03T07:21:00.371Z,880.6
2022-08-03T07:22:02.285Z,880.6
2022-08-03T07:23:00.394Z,880.6
2022-08-03T07:24:00.319Z,880.7
2022-08-03T07:25:00.466Z,880.7
2022-08-03T07:26:00.299Z,880.7
2022-08-03T07:27:00.305Z,880.6
2022-08-03T07:28:00.370Z,880.6
2022-08-03T07:29:00.309Z,880.6
2022-08-03T07:30:00.327Z,880.6
2022-08-03T07:31:00.387Z,880.6
2022-08-03T07:32:00.325Z,880.6
2022-08-03T07:33:00.315Z,880.5
2022-08-03T07:34:00.325Z,880.6
2022-08-03T07:35:01.174Z,880.6
2022-08-03T07:36:00.295Z,880.6
2022-08-03T07:37:00.453Z,880.6
2022-08-03T07:38:00.381Z,880.5
2022-08-03T07:39:00.289Z,880.6
2022-08-03T07:40:00.299Z,880.6
2022-08-03T07:41:00.400Z,880.6
2022-08-03T07:42:00.299Z,880.6
2022-08-03T07:43:00.592Z,880.6
2022-08-03T07:44:00.347Z,880.5
2022-08-03T07:45:00.333Z,880.5
2022-08-03T07:46:00.319Z,880.5
2022-08-03T07:47:00.546Z,880.5
2022-08-03T07:48:00.517Z,880.5
2022-08-03T07:49:00.465Z,880.5
2022-08-03T07:50:00.418Z,880.5
2022-08-03T07:51:00.318Z,880.5
2022-08-03T07:52:00.313Z,880.4
2022-08-03T07:53:00.305Z,880.4
2022-08-03T07:54:00.318Z,880.4
2022-08-03T07:55:00.302Z,880.5
2022-08-03T07:56:00.389Z,880.4
2022-08-03T07:57:00.287Z,880.4
2022-08-03T07:58:00.302Z,880.4
2022-08-03T07:59:00.304Z,880.4
2022-08-03T08:00:02.350Z,880.4
2022-08-03T08:01:00.373Z,880.4
2022-08-03T08:02:00.402Z,880.4
2022-08-03T08:03:00.381Z,880.4
2022-08-03T08:04:00.296Z,880.3
2022-08-03T08:05:05.355Z,880.3
2022-08-03T08:06:00.298Z,880.3
2022-08-03T08:07:00.296Z,880.3
2022-08-03T08:08:00.508Z,880.3
2022-08-03T08:09:00.286Z,880.3
2022-08-03T08:10:00.316Z,880.3
2022-08-03T08:11:00.306Z,880.3
2022-08-03T08:12:00.324Z,880.3
2022-08-03T08:13:00.305Z,880.2
2022-08-03T08:14:00.502Z,880.2
2022-08-03T08:15:00.420Z,880.3
2022-08-03T08:16:00.280Z,880.3
2022-08-03T08:17:04.359Z,880.3
2022-08-03T08:18:00.313Z,880.2
2022-08-03T08:19:00.355Z,880.2
2022-08-03T08:20:00.463Z,880.2
2022-08-03T08:21:00.286Z,880.2
2022-08-03T08:22:02.875Z,880.2
2022-08-03T08:23:01.610Z,880.2
2022-08-03T08:24:00.310Z,880.2
2022-08-03T08:25:01.206Z,880.1
2022-08-03T08:26:00.383Z,880.1
2022-08-03T08:27:00.303Z,880.1
2022-08-03T08:28:30.572Z,880.1
2022-08-03T08:29:00.296Z,880.1
2022-08-03T08:30:07.277Z,880.1
2022-08-03T08:31:00.295Z,880.1
2022-08-03T08:32:00.416Z,880.1
2022-08-03T08:33:00.320Z,880.2
2022-08-03T08:34:04.597Z,880.2
2022-08-03T08:35:00.315Z,880.1
2022-08-03T08:36:00.307Z,880.2
2022-08-03T08:37:00.298Z,880.1
2022-08-03T08:38:00.388Z,880.2
2022-08-03T08:39:00.302Z,880.1
2022-08-03T08:40:00.301Z,880.1
2022-08-03T08:41:00.301Z,880.1
2022-08-03T08:42:00.299Z,880.1
2022-08-03T08:43:00.302Z,880.1
2022-08-03T08:44:00.610Z,880.1
2022-08-03T08:45:00.388Z,880.1
2022-08-03T08:46:00.299Z,880.1
2022-08-03T08:47:00.322Z,880.1
2022-08-03T08:48:01.799Z,880.1
2022-08-03T08:49:00.377Z,880.1
2022-08-03T08:50:09.627Z,880.1
2022-08-03T08:51:00.279Z,880.1
2022-08-03T08:52:01.187Z,880.1
2022-08-03T08:53:00.335Z,880.1
2022-08-03T08:54:00.303Z,880.1
2022-08-03T08:55:00.469Z,880.1
2022-08-03T08:56:01.067Z,880.1
2022-08-03T08:57:00.329Z,880.0
2022-08-03T08:58:00.352Z,880.0
2022-08-03T08:59:00.305Z,880.0
2022-08-03T09:00:00.365Z,880.1
2022-08-03T09:01:00.417Z,880.1
2022-08-03T09:02:00.455Z,880.1
2022-08-03T09:03:00.396Z,880.1
2022-08-03T09:04:00.299Z,880.1
2022-08-03T09:05:04.026Z,880.0
2022-08-03T09:06:00.381Z,880.0
2022-08-03T09:07:19.163Z,880.0
2022-08-03T09:08:00.430Z,880.0
2022-08-03T09:09:00.315Z,880.0
2022-08-03T09:10:12.079Z,880.0
2022-08-03T09:11:00.307Z,880.0
2022-08-03T09:12:20.895Z,880.0
2022-08-03T09:13:00.281Z,880.0
2022-08-03T09:14:00.492Z,880.0
2022-08-03T09:16:01.156Z,879.9
2022-08-03T09:17:00.309Z,879.9
2022-08-03T09:18:00.410Z,879.9
2022-08-03T09:19:00.296Z,879.9
2022-08-03T09:20:02.844Z,879.8
2022-08-03T09:21:14.803Z,879.8
2022-08-03T09:22:00.302Z,879.9
2022-08-03T09:23:00.306Z,879.8
2022-08-03T09:24:02.822Z,879.8
2022-08-03T09:25:22.736Z,879.8
2022-08-03T09:26:00.407Z,879.8
2022-08-03T09:27:00.309Z,879.8
2022-08-03T09:28:00.296Z,879.8
2022-08-03T09:29:04.690Z,879.8
2022-08-03T09:30:00.392Z,879.8
2022-08-03T09:31:00.398Z,879.8
2022-08-03T09:32:00.499Z,879.8
2022-08-03T09:33:00.407Z,879.8
2022-08-03T09:34:00.393Z,879.8
2022-08-03T09:35:00.302Z,879.7
2022-08-03T09:36:00.346Z,879.7
2022-08-03T09:37:00.306Z,879.7
2022-08-03T09:38:12.068Z,879.7
2022-08-03T09:39:00.303Z,879.7
2022-08-03T09:40:00.489Z,879.7
2022-08-03T09:41:01.073Z,879.7
2022-08-03T09:42:00.299Z,879.7
2022-08-03T09:43:00.314Z,879.7
2022-08-03T09:44:00.382Z,879.7
2022-08-03T09:45:00.304Z,879.7
2022-08-03T09:46:00.298Z,879.7
2022-08-03T09:47:00.326Z,879.7
2022-08-03T09:48:00.309Z,879.6
2022-08-03T09:49:00.371Z,879.6
2022-08-03T09:50:00.514Z,879.6
2022-08-03T09:51:14.328Z,879.6
2022-08-03T09:52:28.931Z,879.6
2022-08-03T09:53:00.300Z,879.6
2022-08-03T09:54:00.580Z,879.6
2022-08-03T09:55:00.310Z,879.6
2022-08-03T09:56:34.446Z,879.6
2022-08-03T09:57:00.365Z,879.6
2022-08-03T09:58:00.362Z,879.6
2022-08-03T09:59:00.308Z,879.6
2022-08-03T10:00:06.184Z,879.6
2022-08-03T10:01:00.418Z,879.6
2022-08-03T10:02:00.459Z,879.6
2022-08-03T10:03:00.327Z,879.6
2022-08-03T10:04:04.031Z,879.6
2022-08-03T10:05:00.355Z,879.6
2022-08-03T10:06:00.355Z,879.6
2022-08-03T10:07:00.385Z,879.6
2022-08-03T10:08:00.313Z,879.5
2022-08-03T10:09:00.302Z,879.5
2022-08-03T10:10:28.899Z,879.6
2022-08-03T10:11:00.283Z,879.5
2022-08-03T10:12:00.316Z,879.5
2022-08-03T10:13:00.367Z,879.5
2022-08-03T10:14:01.467Z,879.5
2022-08-03T10:15:00.361Z,879.5
2022-08-03T10:16:21.661Z,879.5
2022-08-03T10:17:00.321Z,879.5
2022-08-03T10:18:00.297Z,879.5
2022-08-03T10:19:00.768Z,879.5
2022-08-03T10:20:00.443Z,879.5
2022-08-03T10:21:00.315Z,879.5
2022-08-03T10:22:00.394Z,879.4
2022-08-03T10:23:00.311Z,879.4
2022-08-03T10:24:00.291Z,879.4
2022-08-03T10:25:00.298Z,879.4
2022-08-03T10:26:00.385Z,879.4
2022-08-03T10:27:00.326Z,879.4
2022-08-03T10:28:00.313Z,879.3
2022-08-03T10:29:00.305Z,879.4
2022-08-03T10:30:00.357Z,879.4
2022-08-03T10:31:00.292Z,879.4
2022-08-03T10:32:00.379Z,879.4
2022-08-03T10:33:00.370Z,879.4
2022-08-03T10:34:00.321Z,879.3
2022-08-03T10:35:01.804Z,879.4
2022-08-03T10:36:00.343Z,879.4
2022-08-03T10:37:00.331Z,879.3
2022-08-03T10:38:00.423Z,879.3
2022-08-03T10:39:00.371Z,879.3
2022-08-03T10:40:00.354Z,879.3
2022-08-03T10:41:00.353Z,879.3
2022-08-03T10:42:02.603Z,879.3
2022-08-03T10:43:00.312Z,879.3
2022-08-03T10:44:00.308Z,879.3
2022-08-03T10:45:00.416Z,879.3
2022-08-03T10:46:00.285Z,879.3
2022-08-03T10:47:00.409Z,879.3
2022-08-03T10:48:00.300Z,879.3
2022-08-03T10:49:00.358Z,879.2
2022-08-03T10:50:00.366Z,879.2
2022-08-03T10:51:00.422Z,879.2
2022-08-03T10:52:00.297Z,879.2
2022-08-03T10:53:00.312Z,879.2
2022-08-03T10:54:01.528Z,879.2
2022-08-03T10:55:00.362Z,879.2
2022-08-03T10:56:00.554Z,879.2
2022-08-03T10:57:13.679Z,879.2
2022-08-03T10:58:00.347Z,879.2
2022-08-03T10:59:00.300Z,879.2
2022-08-03T11:00:00.391Z,879.1
2022-08-03T11:01:00.428Z,879.1
2022-08-03T11:02:01.297Z,879.1
2022-08-03T11:03:00.322Z,879.1
2022-08-03T11:04:00.295Z,879.1
2022-08-03T11:05:00.350Z,879.1
2022-08-03T11:06:00.372Z,879.1
2022-08-03T11:07:00.396Z,879.1
2022-08-03T11:08:00.444Z,879.1
2022-08-03T11:09:00.322Z,879.1
2022-08-03T11:10:00.336Z,879.1
2022-08-03T11:11:00.296Z,879.1
2022-08-03T11:12:00.335Z,879.1
2022-08-03T11:13:00.298Z,879.0
2022-08-03T11:14:00.405Z,879.0
2022-08-03T11:15:00.324Z,879.0
2022-08-03T11:16:02.992Z,879.0
2022-08-03T11:17:00.394Z,879.0
2022-08-03T11:18:00.316Z,879.0
2022-08-03T11:19:00.295Z,878.9
2022-08-03T11:20:00.417Z,878.9
2022-08-03T11:21:00.297Z,878.9
2022-08-03T11:22:00.358Z,878.9
2022-08-03T11:23:00.313Z,878.9
2022-08-03T11:24:02.534Z,878.8
2022-08-03T11:25:00.404Z,878.8
2022-08-03T11:26:00.479Z,878.8
2022-08-03T11:27:04.319Z,878.8
2022-08-03T11:28:00.311Z,878.8
2022-08-03T11:29:00.299Z,878.8
2022-08-03T11:30:00.284Z,878.8
2022-08-03T11:31:00.325Z,878.8
2022-08-03T11:32:00.441Z,878.8
2022-08-03T11:33:00.299Z,878.8
2022-08-03T11:34:00.309Z,878.7
2022-08-03T11:35:00.301Z,878.7
2022-08-03T11:36:00.289Z,878.7
2022-08-03T11:37:00.342Z,878.7
2022-08-03T11:38:03.435Z,878.7
2022-08-03T11:39:00.314Z,878.6
2022-08-03T11:40:02.571Z,878.7
2022-08-03T11:41:00.334Z,878.7
2022-08-03T11:42:00.333Z,878.7
2022-08-03T11:43:00.359Z,878.6
2022-08-03T11:44:00.386Z,878.6
2022-08-03T11:45:00.327Z,878.6
2022-08-03T11:46:00.357Z,878.6
2022-08-03T11:47:00.419Z,878.6
2022-08-03T11:48:00.314Z,878.7
2022-08-03T11:49:00.385Z,878.6
2022-08-03T11:50:00.492Z,878.6
2022-08-03T11:51:00.329Z,878.6
2022-08-03T11:52:00.312Z,878.6
2022-08-03T11:53:00.303Z,878.6
2022-08-03T11:54:00.316Z,878.5
2022-08-03T11:55:00.286Z,878.5
2022-08-03T11:56:00.490Z,878.5
2022-08-03T11:57:00.305Z,878.5
2022-08-03T11:59:00.885Z,878.5
2022-08-03T11:59:20.293Z,878.5
2022-08-03T12:00:00.308Z,878.5
2022-08-03T12:01:00.331Z,878.5
2022-08-03T12:02:00.515Z,878.5
2022-08-03T12:03:00.374Z,878.5
2022-08-03T12:04:00.327Z,878.5
2022-08-03T12:05:00.335Z,878.5
2022-08-03T12:06:00.742Z,878.5
2022-08-03T12:07:00.427Z,878.5
2022-08-03T12:08:03.971Z,878.5
2022-08-03T12:09:00.363Z,878.5
2022-08-03T12:10:00.353Z,878.5
2022-08-03T12:11:00.469Z,878.5
2022-08-03T12:12:01.352Z,878.5
2022-08-03T12:13:00.374Z,878.5
2022-08-03T12:14:49.416Z,878.5
2022-08-03T12:15:00.313Z,878.4
2022-08-03T12:16:00.334Z,878.4
2022-08-03T12:17:00.299Z,878.4
2022-08-03T12:18:00.402Z,878.4
2022-08-03T12:19:00.287Z,878.4
2022-08-03T12:20:00.332Z,878.4
2022-08-03T12:21:00.320Z,878.4
2022-08-03T12:22:00.339Z,878.4
2022-08-03T12:23:00.310Z,878.3
2022-08-03T12:24:00.761Z,878.4
2022-08-03T12:25:00.309Z,878.4
2022-08-03T12:26:00.311Z,878.3
2022-08-03T12:27:00.385Z,878.3
2022-08-03T12:28:00.357Z,878.3
2022-08-03T12:29:00.319Z,878.3
2022-08-03T12:30:00.893Z,878.3
2022-08-03T12:31:00.330Z,878.3
2022-08-03T12:32:00.327Z,878.2
2022-08-03T12:33:00.329Z,878.2
2022-08-03T12:34:00.329Z,878.2
2022-08-03T12:35:00.722Z,878.2
2022-08-03T12:36:00.407Z,878.2
2022-08-03T12:37:00.426Z,878.2
2022-08-03T12:38:00.460Z,878.2
2022-08-03T12:39:00.425Z,878.2
2022-08-03T12:40:01.722Z,878.2
2022-08-03T12:41:00.639Z,878.3
2022-08-03T12:42:00.285Z,878.3
2022-08-03T12:43:00.319Z,878.2
2022-08-03T12:44:00.380Z,878.2
2022-08-03T12:45:00.382Z,878.2
2022-08-03T12:46:00.425Z,878.2
2022-08-03T12:47:00.370Z,878.2
2022-08-03T12:48:00.298Z,878.2
2022-08-03T12:49:00.445Z,878.2
2022-08-03T12:50:00.459Z,878.2
2022-08-03T12:51:00.308Z,878.2
2022-08-03T12:52:05.277Z,878.2
2022-08-03T12:53:00.341Z,878.2